Time;durP1;ratioP1;P1;durP2;ratioP2;P2;SDS_P1;SDS_P2;PMS_P1;PMS_P2;Temp;Humidity;BMP_temperature;BMP_pressure;BME280_temperature;BME280_humidity;BME280_pressure;Samples;Min_cycle;Max_cycle;Signal;HPM_P1;HPM_P2
2024/02/12 00:00:49;;;;;;;57.45;29.02;;;10.80;99.90;;;;;;5032973;28;20044;-75
2024/02/12 00:03:17;;;;;;;155.38;82.07;;;10.80;99.90;;;;;;5038850;28;20104;-74
2024/02/12 00:05:46;;;;;;;123.97;72.25;;;10.90;99.90;;;;;;5036064;28;20024;-76
2024/02/12 00:08:15;;;;;;;58.13;32.47;;;10.80;99.90;;;;;;5034356;28;20518;-76
2024/02/12 00:10:41;;;;;;;56.25;29.50;;;10.90;99.90;;;;;;5035146;28;20026;-76
2024/02/12 00:13:07;;;;;;;60.70;30.75;;;10.90;99.90;;;;;;5039981;28;20478;-76
2024/02/12 00:15:33;;;;;;;60.45;31.30;;;10.90;99.90;;;;;;5037757;28;20025;-76
2024/02/12 00:17:59;;;;;;;55.75;29.42;;;10.90;99.90;;;;;;5036887;28;20477;-74
2024/02/12 00:20:29;;;;;;;61.22;30.42;;;10.90;99.90;;;;;;5032668;28;20473;-75
2024/02/12 00:22:56;;;;;;;55.60;30.58;;;10.70;99.90;;;;;;5033828;28;20026;-74
2024/02/12 00:25:23;;;;;;;62.47;30.63;;;10.80;99.90;;;;;;5035414;28;20486;-75
2024/02/12 00:27:48;;;;;;;56.47;30.35;;;10.70;99.90;;;;;;5021867;28;20037;-75
2024/02/12 00:30:15;;;;;;;60.38;31.30;;;10.70;99.90;;;;;;5014727;28;20021;-77
2024/02/12 00:32:43;;;;;;;58.35;31.88;;;10.60;99.90;;;;;;5015129;28;20034;-74
2024/02/12 00:35:10;;;;;;;63.97;32.40;;;10.70;99.90;;;;;;5015731;28;20490;-76
2024/02/12 00:37:37;;;;;;;64.45;32.03;;;10.70;99.90;;;;;;5031308;28;20029;-76
2024/02/12 00:40:08;;;;;;;65.47;32.45;;;10.70;99.90;;;;;;5032984;28;20022;-74
2024/02/12 00:42:35;;;;;;;66.25;34.67;;;10.80;99.90;;;;;;5035907;28;20080;-77
2024/02/12 00:45:06;;;;;;;69.40;34.08;;;10.80;99.90;;;;;;5035750;28;20021;-77
2024/02/12 00:47:32;;;;;;;74.85;36.45;;;10.80;99.90;;;;;;5035916;28;20382;-77
2024/02/12 00:49:59;;;;;;;69.38;35.70;;;10.80;99.90;;;;;;5035423;28;20531;-76
2024/02/12 00:52:25;;;;;;;67.18;35.53;;;10.80;99.90;;;;;;5035117;28;20017;-77
2024/02/12 00:54:52;;;;;;;74.15;35.05;;;10.90;99.90;;;;;;5035918;28;20108;-75
2024/02/12 00:57:21;;;;;;;81.20;36.80;;;10.90;99.90;;;;;;5031236;28;20459;-75
2024/02/12 00:59:47;;;;;;;80.55;37.35;;;10.90;99.90;;;;;;5033078;28;20502;-76
2024/02/12 01:02:13;;;;;;;72.65;35.13;;;10.90;99.90;;;;;;5034224;28;20041;-76
2024/02/12 01:04:38;;;;;;;85.38;37.97;;;10.90;99.90;;;;;;5034703;28;20417;-76
2024/02/12 01:07:04;;;;;;;85.20;38.83;;;10.80;99.90;;;;;;5021901;28;20459;-77
2024/02/12 01:09:30;;;;;;;71.72;34.28;;;10.80;99.90;;;;;;5034908;28;20017;-76
2024/02/12 01:11:57;;;;;;;71.82;34.47;;;10.80;99.90;;;;;;5034943;28;20033;-76
2024/02/12 01:14:23;;;;;;;80.07;35.05;;;10.80;99.90;;;;;;5035309;28;20016;-77
2024/02/12 01:16:50;;;;;;;78.15;38.05;;;10.80;99.90;;;;;;5034935;28;20108;-77
2024/02/12 01:19:16;;;;;;;81.05;37.67;;;10.80;99.90;;;;;;5035389;28;20025;-77
2024/02/12 01:21:42;;;;;;;78.60;37.97;;;10.90;99.90;;;;;;5034419;28;20442;-77
2024/02/12 01:24:08;;;;;;;79.80;37.83;;;10.90;99.90;;;;;;5033675;28;20072;-76
2024/02/12 01:26:36;;;;;;;84.47;38.22;;;10.90;99.90;;;;;;5032431;28;20454;-76
2024/02/12 01:29:06;;;;;;;83.80;39.30;;;11.00;99.90;;;;;;5034493;28;20061;-76
2024/02/12 01:31:32;;;;;;;79.22;38.15;;;10.90;99.90;;;;;;5033004;28;20433;-77
2024/02/12 01:33:58;;;;;;;79.22;38.35;;;10.90;99.90;;;;;;5034328;28;20026;-77
2024/02/12 01:36:25;;;;;;;88.75;38.83;;;10.90;99.90;;;;;;5033960;28;20467;-77
2024/02/12 01:38:51;;;;;;;97.07;40.85;;;11.00;99.90;;;;;;5033259;28;20041;-77
2024/02/12 01:41:17;;;;;;;78.68;38.67;;;10.90;99.90;;;;;;5034748;28;20092;-75
2024/02/12 01:43:43;;;;;;;82.43;40.28;;;11.00;99.90;;;;;;5033838;28;20036;-75
2024/02/12 01:46:09;;;;;;;85.50;41.17;;;11.00;99.90;;;;;;5034335;28;20018;-76
2024/02/12 01:48:36;;;;;;;86.00;38.05;;;10.90;99.90;;;;;;5033039;28;20108;-76
2024/02/12 01:51:07;;;;;;;82.47;38.35;;;11.00;99.90;;;;;;5031471;28;20045;-75
2024/02/12 01:53:37;;;;;;;75.28;35.83;;;10.90;99.90;;;;;;5034807;28;20022;-77
2024/02/12 01:56:08;;;;;;;78.82;35.92;;;10.80;99.90;;;;;;5032482;28;20021;-77
2024/02/12 01:58:36;;;;;;;77.28;37.92;;;10.90;99.90;;;;;;5034466;28;20030;-75
2024/02/12 02:01:02;;;;;;;80.50;38.25;;;10.90;99.90;;;;;;5034081;28;20475;-77
2024/02/12 02:03:30;;;;;;;75.30;35.03;;;10.80;99.90;;;;;;5034116;28;20037;-76
2024/02/12 02:05:56;;;;;;;74.78;35.88;;;10.70;99.90;;;;;;5034374;28;20108;-77
2024/02/12 02:08:34;;;;;;;80.43;38.30;;;10.70;99.90;;;;;;5032562;28;20140;-77
2024/02/12 02:11:00;;;;;;;65.15;34.95;;;10.70;99.90;;;;;;5022334;28;20030;-77
2024/02/12 02:13:28;;;;;;;83.97;37.33;;;10.70;99.90;;;;;;5034181;28;20021;-76
2024/02/12 02:15:53;;;;;;;70.65;34.50;;;10.70;99.90;;;;;;5033983;28;20029;-77
2024/02/12 02:18:20;;;;;;;67.63;34.53;;;10.70;99.90;;;;;;5026784;28;20049;-77
2024/02/12 02:20:46;;;;;;;72.93;36.78;;;10.80;99.90;;;;;;5026627;28;20042;-76
2024/02/12 02:23:12;;;;;;;71.97;34.13;;;10.80;99.90;;;;;;5033909;28;20100;-77
2024/02/12 02:25:40;;;;;;;69.68;34.90;;;10.70;99.90;;;;;;5034017;28;20148;-76
2024/02/12 02:28:06;;;;;;;82.82;38.63;;;10.70;99.90;;;;;;5033601;28;20029;-75
2024/02/12 02:30:31;;;;;;;66.55;33.70;;;10.70;99.90;;;;;;5032441;28;20474;-77
2024/02/12 02:32:57;;;;;;;70.45;35.20;;;10.70;99.90;;;;;;5035209;28;20473;-78
2024/02/12 02:35:23;;;;;;;69.53;35.17;;;10.70;99.90;;;;;;5034185;28;20025;-77
2024/02/12 02:37:49;;;;;;;74.13;37.28;;;10.70;99.90;;;;;;5033801;28;20021;-75
2024/02/12 02:40:15;;;;;;;73.32;34.97;;;10.70;99.90;;;;;;5033837;28;20433;-77
2024/02/12 02:42:41;;;;;;;64.28;33.72;;;10.70;99.90;;;;;;5033578;28;20030;-75
2024/02/12 02:45:07;;;;;;;69.38;34.65;;;10.70;99.90;;;;;;5033767;28;20083;-77
2024/02/12 02:47:33;;;;;;;73.40;36.10;;;10.70;99.90;;;;;;5032039;28;20056;-77
2024/02/12 02:49:58;;;;;;;71.55;36.55;;;10.60;99.90;;;;;;5033652;28;20025;-75
2024/02/12 02:52:25;;;;;;;74.45;37.17;;;10.70;99.90;;;;;;5033631;28;20025;-77
2024/02/12 02:54:50;;;;;;;76.47;35.95;;;10.70;99.90;;;;;;5032432;28;20128;-75
2024/02/12 02:57:18;;;;;;;75.10;34.95;;;10.60;99.90;;;;;;5032957;28;20449;-76
2024/02/12 02:59:43;;;;;;;71.57;35.00;;;10.70;99.90;;;;;;5033339;28;20037;-77
2024/02/12 03:02:11;;;;;;;66.97;35.25;;;10.70;99.90;;;;;;5031289;28;20596;-78
2024/02/12 03:04:38;;;;;;;70.00;35.58;;;10.70;99.90;;;;;;5032281;28;20501;-78
2024/02/12 03:07:06;;;;;;;69.07;34.50;;;10.70;99.90;;;;;;5033139;28;20029;-78
2024/02/12 03:09:35;;;;;;;66.45;35.72;;;10.70;99.90;;;;;;5033292;28;20033;-78
2024/02/12 03:12:01;;;;;;;70.50;34.95;;;10.70;99.90;;;;;;5032275;28;20022;-76
2024/02/12 03:14:27;;;;;;;75.32;35.50;;;10.70;99.90;;;;;;5031720;28;20053;-78
2024/02/12 03:16:55;;;;;;;72.05;36.88;;;10.60;99.90;;;;;;5032453;28;20060;-78
2024/02/12 03:19:20;;;;;;;69.45;34.60;;;10.60;99.90;;;;;;5033056;28;20025;-78
2024/02/12 03:21:49;;;;;;;71.35;33.45;;;10.70;99.90;;;;;;5033198;28;20032;-78
2024/02/12 03:24:16;;;;;;;70.30;35.83;;;10.70;99.90;;;;;;5033080;28;20160;-78
2024/02/12 03:26:42;;;;;;;77.20;35.88;;;10.60;99.90;;;;;;5032602;28;20024;-77
2024/02/12 03:29:07;;;;;;;71.53;34.78;;;10.70;99.90;;;;;;5032860;28;20060;-75
2024/02/12 03:31:33;;;;;;;68.55;34.08;;;10.70;99.90;;;;;;5032691;28;20053;-78
2024/02/12 03:33:59;;;;;;;69.28;33.58;;;10.70;99.90;;;;;;5032700;28;20037;-78
2024/02/12 03:36:25;;;;;;;68.72;35.53;;;10.70;99.90;;;;;;5032345;28;20025;-78
2024/02/12 03:38:52;;;;;;;70.25;34.90;;;10.60;99.90;;;;;;5032784;28;20033;-77
2024/02/12 03:41:18;;;;;;;77.97;34.85;;;10.50;99.90;;;;;;5032955;28;20148;-77
2024/02/12 03:43:44;;;;;;;71.63;35.30;;;10.60;99.90;;;;;;5031560;28;20025;-77
2024/02/12 03:46:19;;;;;;;65.68;33.45;;;10.50;99.90;;;;;;5032274;28;20467;-77
2024/02/12 03:59:51;;;;;;;64.47;33.13;;;10.50;99.90;;;;;;5032162;28;20088;-78
2024/02/12 04:02:18;;;;;;;66.60;34.63;;;10.50;99.90;;;;;;5032128;28;20041;-78
2024/02/12 04:04:44;;;;;;;69.65;33.83;;;10.50;99.90;;;;;;5031176;28;20068;-75
2024/02/12 04:07:10;;;;;;;67.55;33.72;;;10.50;99.90;;;;;;5032290;28;20425;-76
2024/02/12 04:09:41;;;;;;;68.70;33.78;;;10.40;99.90;;;;;;5032228;28;20056;-78
2024/02/12 04:12:11;;;;;;;73.10;33.28;;;10.30;99.90;;;;;;5032377;28;20493;-78
2024/02/12 04:14:42;;;;;;;63.92;32.55;;;10.30;99.90;;;;;;5030637;28;20379;-74
2024/02/12 04:17:14;;;;;;;62.78;31.55;;;10.30;99.90;;;;;;5032314;28;20029;-77
2024/02/12 04:19:41;;;;;;;61.38;29.92;;;10.20;99.90;;;;;;5031924;28;20041;-78
2024/02/12 04:22:10;;;;;;;65.15;30.48;;;10.20;99.90;;;;;;5024124;28;20037;-78
2024/02/12 04:24:44;;;;;;;59.90;30.30;;;10.20;99.90;;;;;;5026672;28;20026;-76
2024/02/12 04:27:10;;;;;;;53.47;28.77;;;10.20;99.90;;;;;;5031730;28;20017;-78
2024/02/12 04:29:38;;;;;;;63.65;28.75;;;10.10;99.90;;;;;;5028550;28;20018;-78
2024/02/12 04:32:14;;;;;;;57.25;30.25;;;10.20;99.90;;;;;;5019546;28;20029;-78
2024/02/12 04:34:41;;;;;;;57.60;28.73;;;10.10;99.90;;;;;;5030648;28;20030;-77
2024/02/12 04:37:08;;;;;;;53.72;28.67;;;10.10;99.90;;;;;;5031736;28;20025;-78
2024/02/12 04:39:34;;;;;;;55.67;29.48;;;10.20;99.90;;;;;;5031883;28;20038;-78
2024/02/12 04:42:00;;;;;;;57.58;28.17;;;10.20;99.90;;;;;;5032022;28;20101;-78
2024/02/12 04:44:29;;;;;;;63.00;29.02;;;10.20;99.90;;;;;;5031590;28;20707;-78
2024/02/12 04:46:55;;;;;;;53.00;27.85;;;10.20;99.90;;;;;;5031854;28;20033;-78
2024/02/12 04:49:21;;;;;;;58.45;25.60;;;10.20;99.90;;;;;;5031678;28;20024;-78
2024/02/12 04:51:48;;;;;;;56.05;25.98;;;10.20;99.90;;;;;;5030730;28;20022;-78
2024/02/12 04:54:14;;;;;;;41.88;24.75;;;10.20;99.90;;;;;;5031980;28;20025;-77
2024/02/12 04:56:43;;;;;;;54.17;25.65;;;10.20;99.90;;;;;;5030153;28;20061;-77
2024/02/12 04:59:11;;;;;;;55.13;26.55;;;10.20;99.90;;;;;;5030126;28;20128;-75
2024/02/12 05:01:40;;;;;;;55.85;25.27;;;10.30;99.90;;;;;;5031286;28;20026;-79
2024/02/12 05:04:06;;;;;;;51.80;26.17;;;10.30;99.90;;;;;;5030572;28;20128;-78
2024/02/12 05:06:33;;;;;;;54.08;26.33;;;10.30;99.90;;;;;;5031562;28;20403;-78
2024/02/12 05:08:59;;;;;;;49.42;25.73;;;10.20;99.90;;;;;;5031303;28;20032;-76
2024/02/12 05:11:26;;;;;;;53.47;26.75;;;10.10;99.90;;;;;;5030634;28;20046;-78
2024/02/12 05:13:56;;;;;;;48.60;24.40;;;10.20;99.90;;;;;;5031473;28;20022;-77
2024/02/12 05:16:34;;;;;;;49.55;25.58;;;10.10;99.90;;;;;;5031614;28;20071;-78
2024/02/12 05:24:34;;;;;;;50.58;24.70;;;10.20;99.90;;;;;;5032174;28;20126;-78
2024/02/12 05:27:02;;;;;;;55.13;26.38;;;10.20;99.90;;;;;;5034019;28;20473;-77
2024/02/12 05:29:28;;;;;;;55.65;27.33;;;10.20;99.90;;;;;;5031297;28;20149;-77
2024/02/12 05:31:55;;;;;;;53.85;26.92;;;10.20;99.90;;;;;;5018863;28;20021;-77
2024/02/12 05:34:23;;;;;;;52.65;25.05;;;10.20;99.90;;;;;;5028280;28;20021;-77
2024/02/12 05:36:56;;;;;;;45.28;23.45;;;10.10;99.90;;;;;;5022426;28;20048;-75
2024/02/12 05:39:22;;;;;;;46.97;23.55;;;10.20;99.90;;;;;;5033597;28;20037;-78
2024/02/12 05:41:48;;;;;;;52.20;24.23;;;10.20;99.90;;;;;;5034788;28;20018;-74
2024/02/12 05:44:17;;;;;;;49.38;24.00;;;10.10;99.90;;;;;;5035036;28;20057;-77
2024/02/12 05:46:43;;;;;;;46.50;22.00;;;10.20;99.90;;;;;;5033063;28;20039;-77
2024/02/12 05:49:13;;;;;;;48.75;23.27;;;10.20;99.90;;;;;;5034729;28;20033;-78
2024/02/12 05:51:39;;;;;;;43.20;23.48;;;10.20;99.90;;;;;;5034766;28;20056;-78
2024/02/12 05:54:05;;;;;;;47.97;23.85;;;10.20;99.90;;;;;;5035058;28;20065;-74
2024/02/12 05:56:31;;;;;;;48.42;24.13;;;10.20;99.90;;;;;;5034290;28;20036;-77
2024/02/12 05:58:57;;;;;;;48.88;24.25;;;10.10;99.90;;;;;;5034430;28;20115;-77
2024/02/12 06:01:24;;;;;;;53.10;24.65;;;10.20;99.90;;;;;;5034683;28;20037;-78
2024/02/12 06:03:50;;;;;;;49.25;24.30;;;10.20;99.90;;;;;;5034832;28;20021;-77
2024/02/12 06:06:16;;;;;;;49.53;24.90;;;10.20;99.90;;;;;;5034427;28;20557;-76
2024/02/12 06:08:42;;;;;;;51.60;26.50;;;10.20;99.90;;;;;;5034501;28;20033;-78
2024/02/12 06:11:09;;;;;;;54.88;26.00;;;10.20;99.90;;;;;;5034122;28;20028;-76
2024/02/12 06:13:34;;;;;;;54.10;25.90;;;10.20;99.90;;;;;;5034256;28;20021;-77
2024/02/12 06:16:00;;;;;;;57.38;25.45;;;10.20;99.90;;;;;;5034393;28;20039;-74
2024/02/12 06:18:27;;;;;;;47.95;24.70;;;10.20;99.90;;;;;;5034389;28;20065;-78
2024/02/12 06:20:53;;;;;;;50.08;25.73;;;10.20;99.90;;;;;;5034333;28;20106;-77
2024/02/12 06:23:22;;;;;;;52.20;26.33;;;10.20;99.90;;;;;;5034019;28;20092;-77
2024/02/12 06:25:48;;;;;;;54.17;24.58;;;10.20;99.90;;;;;;5026315;28;20025;-78
2024/02/12 06:28:13;;;;;;;48.42;23.33;;;10.20;99.90;;;;;;5022240;28;20344;-75
2024/02/12 06:30:39;;;;;;;48.75;24.45;;;10.20;99.90;;;;;;5033928;28;20490;-77
2024/02/12 06:33:05;;;;;;;55.70;24.15;;;10.30;99.90;;;;;;5034079;28;20026;-77
2024/02/12 06:35:31;;;;;;;57.75;23.92;;;10.30;99.90;;;;;;5033878;28;20025;-77
2024/02/12 06:37:56;;;;;;;49.45;24.27;;;10.30;99.90;;;;;;5032866;28;20040;-74
2024/02/12 06:40:22;;;;;;;48.20;25.40;;;10.20;99.90;;;;;;5033783;28;20029;-77
2024/02/12 06:42:48;;;;;;;51.20;24.55;;;10.20;99.90;;;;;;5033726;28;20483;-77
2024/02/12 06:45:16;;;;;;;52.47;24.83;;;10.30;99.90;;;;;;5033946;28;20025;-77
2024/02/12 06:47:45;;;;;;;54.08;25.65;;;10.30;99.90;;;;;;5032126;28;20450;-75
2024/02/12 06:50:12;;;;;;;56.72;25.45;;;10.40;99.90;;;;;;5033714;28;20022;-76
2024/02/12 06:52:39;;;;;;;49.42;24.65;;;10.40;99.90;;;;;;5025882;28;20052;-77
2024/02/12 06:55:11;;;;;;;54.08;26.55;;;10.40;99.90;;;;;;5027063;28;20104;-75
2024/02/12 06:57:37;;;;;;;57.75;25.80;;;10.40;99.90;;;;;;5030417;28;20021;-77
2024/02/12 07:00:06;;;;;;;53.55;26.05;;;10.40;99.90;;;;;;5033206;28;20533;-76
2024/02/12 07:02:36;;;;;;;58.50;26.00;;;10.30;99.90;;;;;;5026822;28;20030;-76
2024/02/12 07:05:03;;;;;;;57.50;25.65;;;10.30;99.90;;;;;;5021115;28;20057;-75
2024/02/12 07:07:30;;;;;;;58.03;27.77;;;10.10;99.90;;;;;;5033315;28;20074;-76
2024/02/12 07:09:57;;;;;;;61.85;27.52;;;10.10;99.90;;;;;;5033054;28;20165;-75
2024/02/12 07:12:23;;;;;;;57.65;27.55;;;10.00;99.90;;;;;;5022971;28;21517;-74
2024/02/12 07:14:51;;;;;;;57.60;25.05;;;10.00;99.90;;;;;;5024522;28;20477;-78
2024/02/12 07:17:17;;;;;;;58.45;25.88;;;10.00;99.90;;;;;;5031217;28;20021;-76
2024/02/12 07:19:49;;;;;;;48.75;24.08;;;10.00;99.90;;;;;;5031560;28;20091;-76
2024/02/12 07:22:16;;;;;;;48.97;23.38;;;10.10;99.90;;;;;;5032639;28;20554;-76
2024/02/12 07:24:48;;;;;;;51.03;23.77;;;10.10;99.90;;;;;;5033053;28;20056;-76
2024/02/12 07:27:18;;;;;;;49.90;22.85;;;10.10;99.90;;;;;;5028769;28;20018;-76
2024/02/12 07:29:45;;;;;;;49.38;23.20;;;10.10;99.90;;;;;;5025406;28;20017;-74
2024/02/12 07:32:14;;;;;;;51.35;23.42;;;10.00;99.90;;;;;;5031392;28;20033;-76
2024/02/12 07:34:41;;;;;;;50.58;22.95;;;10.10;99.90;;;;;;5031362;28;20055;-76
2024/02/12 07:37:08;;;;;;;57.58;23.77;;;10.10;99.90;;;;;;5032286;28;20027;-76
2024/02/12 07:39:34;;;;;;;45.63;21.77;;;10.00;99.90;;;;;;5032091;28;20091;-76
2024/02/12 07:42:00;;;;;;;46.70;24.35;;;9.90;99.90;;;;;;5018761;28;20025;-76
2024/02/12 07:44:29;;;;;;;44.83;22.42;;;9.90;99.90;;;;;;5031577;28;20429;-75
2024/02/12 07:46:54;;;;;;;41.55;20.23;;;9.90;99.90;;;;;;5021525;28;20064;-75
2024/02/12 07:49:20;;;;;;;47.53;21.10;;;9.90;99.90;;;;;;5029900;28;20470;-75
2024/02/12 07:51:47;;;;;;;44.30;20.80;;;10.00;99.90;;;;;;5032548;28;20112;-76
2024/02/12 07:54:13;;;;;;;42.35;20.08;;;9.90;99.90;;;;;;5032220;28;20076;-77
2024/02/12 07:56:41;;;;;;;39.63;18.40;;;9.90;99.90;;;;;;5031569;28;20021;-76
2024/02/12 07:59:07;;;;;;;42.40;17.45;;;10.00;99.90;;;;;;5029723;28;20096;-75
2024/02/12 08:01:33;;;;;;;42.38;18.83;;;9.90;99.90;;;;;;5027094;28;20033;-75
2024/02/12 08:03:59;;;;;;;44.08;18.58;;;9.90;99.90;;;;;;5031850;28;20113;-76
2024/02/12 08:06:24;;;;;;;50.45;20.58;;;9.90;99.90;;;;;;5030628;28;20021;-74
2024/02/12 08:08:50;;;;;;;37.22;17.17;;;9.90;99.90;;;;;;5030252;28;20029;-76
2024/02/12 08:11:17;;;;;;;38.95;19.02;;;10.00;99.90;;;;;;5024680;28;20028;-76
2024/02/12 08:13:45;;;;;;;39.70;18.70;;;10.00;99.90;;;;;;5027694;28;20032;-76
2024/02/12 08:16:12;;;;;;;41.97;18.60;;;10.00;99.90;;;;;;5021814;28;20053;-74
2024/02/12 08:18:37;;;;;;;43.63;17.65;;;10.00;99.90;;;;;;5029319;28;20037;-76
2024/02/12 08:21:03;;;;;;;40.40;18.00;;;10.10;99.90;;;;;;5030495;28;20013;-76
2024/02/12 08:23:29;;;;;;;40.28;16.58;;;10.00;99.90;;;;;;5032266;28;20036;-76
2024/02/12 08:25:55;;;;;;;33.85;16.15;;;10.10;99.90;;;;;;5030917;28;20025;-76
2024/02/12 08:28:24;;;;;;;40.45;16.83;;;10.10;99.90;;;;;;5031930;28;20204;-76
2024/02/12 08:30:53;;;;;;;35.03;17.63;;;10.10;99.90;;;;;;5031532;28;20532;-76
2024/02/12 08:33:20;;;;;;;34.15;14.73;;;10.10;99.90;;;;;;5030803;28;20580;-75
2024/02/12 08:35:46;;;;;;;32.63;15.48;;;10.10;99.90;;;;;;5030260;28;20045;-76
2024/02/12 08:38:12;;;;;;;32.55;14.75;;;10.10;99.90;;;;;;5030680;28;20459;-75
2024/02/12 08:40:38;;;;;;;32.53;16.33;;;10.30;99.90;;;;;;5031641;28;20032;-77
2024/02/12 08:43:04;;;;;;;33.35;14.55;;;10.20;99.90;;;;;;5031897;28;20028;-73
2024/02/12 08:45:30;;;;;;;28.10;15.48;;;10.30;99.90;;;;;;5032087;28;20489;-76
2024/02/12 08:47:56;;;;;;;31.45;15.00;;;10.30;99.90;;;;;;5031901;28;20029;-77
2024/02/12 08:50:22;;;;;;;34.80;15.23;;;10.20;99.90;;;;;;5031768;28;20075;-74
2024/02/12 08:52:53;;;;;;;32.28;15.15;;;10.20;99.90;;;;;;5018506;28;20096;-76
2024/02/12 08:55:19;;;;;;;31.88;15.13;;;10.20;99.90;;;;;;5031850;28;20435;-76
2024/02/12 08:57:45;;;;;;;32.55;15.02;;;10.20;99.90;;;;;;5028979;28;20474;-74
2024/02/12 09:00:33;;;;;;;32.00;14.95;;;10.30;99.90;;;;;;4994430;28;20052;-73
2024/02/12 09:03:04;;;;;;;28.98;16.15;;;10.40;99.90;;;;;;5025448;28;20033;-77
2024/02/12 09:05:36;;;;;;;30.95;17.70;;;10.50;99.90;;;;;;5035146;28;20038;-76
2024/02/12 09:08:02;;;;;;;31.58;16.42;;;10.50;99.90;;;;;;5044482;28;20111;-77
2024/02/12 09:10:28;;;;;;;31.65;15.55;;;10.50;99.90;;;;;;5038106;28;20025;-77
2024/02/12 09:12:54;;;;;;;26.15;15.90;;;10.50;99.90;;;;;;5041708;28;20457;-76
2024/02/12 09:15:21;;;;;;;26.60;16.27;;;10.40;99.90;;;;;;5039485;28;20445;-73
2024/02/12 09:17:47;;;;;;;28.77;15.57;;;10.40;99.90;;;;;;5043049;28;20057;-77
2024/02/12 09:20:14;;;;;;;36.40;17.25;;;10.40;99.90;;;;;;5042009;28;20053;-77
2024/02/12 09:22:40;;;;;;;26.80;15.90;;;10.40;99.90;;;;;;5039296;28;20020;-77
2024/02/12 09:25:13;;;;;;;32.47;15.75;;;10.40;99.90;;;;;;5035854;28;20033;-78
2024/02/12 09:27:39;;;;;;;28.65;15.35;;;10.50;99.90;;;;;;5042234;28;20035;-79
2024/02/12 09:30:09;;;;;;;34.25;13.73;;;10.50;99.90;;;;;;5039295;28;20044;-77
2024/02/12 09:32:37;;;;;;;29.33;14.15;;;10.50;99.90;;;;;;5042370;28;20025;-76
2024/02/12 09:35:04;;;;;;;28.83;13.02;;;10.50;99.90;;;;;;5038043;28;20116;-77
2024/02/12 09:37:32;;;;;;;24.02;12.07;;;10.50;99.90;;;;;;5037277;28;20071;-77
2024/02/12 09:39:59;;;;;;;22.67;11.20;;;10.50;99.90;;;;;;5038562;28;20037;-76
2024/02/12 09:42:28;;;;;;;21.95;11.13;;;10.70;99.90;;;;;;5041211;28;20466;-76
2024/02/12 09:44:59;;;;;;;21.63;10.93;;;10.80;99.90;;;;;;5039855;28;20033;-75
2024/02/12 09:47:31;;;;;;;24.95;11.18;;;10.90;99.90;;;;;;5038372;28;20031;-80
2024/02/12 09:49:58;;;;;;;23.48;10.70;;;11.00;99.90;;;;;;5038176;28;20052;-80
2024/02/12 09:52:28;;;;;;;19.10;10.52;;;11.00;99.90;;;;;;5034947;28;20060;-82
2024/02/12 09:54:54;;;;;;;20.33;10.50;;;11.10;99.90;;;;;;5037460;28;20021;-75
2024/02/12 09:57:20;;;;;;;24.02;11.70;;;11.20;99.90;;;;;;5037891;28;20100;-74
2024/02/12 09:59:46;;;;;;;20.77;11.73;;;11.30;99.90;;;;;;5036490;28;20120;-75
2024/02/12 10:02:13;;;;;;;28.13;14.45;;;11.30;99.90;;;;;;5036857;28;20033;-75
2024/02/12 10:04:39;;;;;;;23.48;12.00;;;11.20;99.90;;;;;;5040102;28;20466;-76
2024/02/12 10:07:05;;;;;;;20.70;12.50;;;11.30;99.90;;;;;;5040548;28;20014;-75
2024/02/12 10:09:34;;;;;;;21.23;11.80;;;11.30;99.90;;;;;;5035830;28;20388;-76
2024/02/12 10:12:09;;;;;;;22.77;12.32;;;11.30;99.90;;;;;;5034827;28;20049;-78
2024/02/12 10:14:35;;;;;;;22.75;12.40;;;11.40;99.90;;;;;;5036631;28;20030;-77
2024/02/12 10:17:01;;;;;;;20.48;10.88;;;11.30;99.90;;;;;;5037348;28;20024;-79
2024/02/12 10:19:28;;;;;;;21.60;13.77;;;11.30;99.90;;;;;;5038813;28;20086;-78
2024/02/12 10:21:54;;;;;;;28.42;12.00;;;11.30;99.90;;;;;;5039706;28;20032;-78
2024/02/12 10:24:23;;;;;;;18.58;11.98;;;11.40;99.90;;;;;;5040023;28;20025;-79
2024/02/12 10:26:49;;;;;;;18.98;10.98;;;11.40;99.90;;;;;;5039678;28;20025;-76
2024/02/12 10:29:16;;;;;;;23.95;10.27;;;11.30;99.90;;;;;;5037931;28;20030;-79
2024/02/12 10:31:42;;;;;;;20.95;10.27;;;11.30;99.90;;;;;;5038704;28;20823;-79
2024/02/12 10:34:09;;;;;;;21.83;12.00;;;11.30;99.90;;;;;;5028628;28;20021;-80
2024/02/12 10:36:36;;;;;;;17.55;9.25;;;11.40;99.90;;;;;;5037588;28;20350;-79
2024/02/12 10:39:04;;;;;;;17.70;7.72;;;11.30;99.90;;;;;;5037178;28;20485;-80
2024/02/12 10:41:31;;;;;;;16.88;7.57;;;11.40;99.90;;;;;;5038957;28;20105;-80
2024/02/12 10:43:58;;;;;;;17.67;8.20;;;11.50;99.90;;;;;;5039178;28;20017;-79
2024/02/12 10:46:28;;;;;;;16.92;6.60;;;11.30;99.90;;;;;;5036974;28;20108;-80
2024/02/12 10:48:54;;;;;;;13.48;6.60;;;11.30;99.90;;;;;;5038706;28;20021;-79
2024/02/12 10:51:23;;;;;;;14.00;7.30;;;11.30;99.90;;;;;;5035670;28;20017;-77
2024/02/12 10:53:50;;;;;;;14.00;5.75;;;11.30;99.90;;;;;;5034113;28;20086;-77
2024/02/12 10:56:17;;;;;;;13.90;6.30;;;11.30;99.90;;;;;;5034215;28;20017;-79
2024/02/12 10:58:44;;;;;;;12.93;5.72;;;11.30;99.90;;;;;;5037377;28;20033;-80
2024/02/12 11:01:14;;;;;;;15.50;5.28;;;11.20;99.90;;;;;;5040011;28;20037;-81
2024/02/12 11:03:44;;;;;;;8.32;4.15;;;11.30;99.90;;;;;;5034920;28;20553;-81
2024/02/12 11:06:10;;;;;;;13.38;5.40;;;11.40;99.90;;;;;;5035125;28;20026;-80
2024/02/12 11:08:41;;;;;;;19.73;5.20;;;11.40;99.90;;;;;;5032863;28;20025;-80
2024/02/12 11:11:22;;;;;;;19.92;4.90;;;11.40;99.90;;;;;;5025354;28;20032;-81
2024/02/12 11:13:59;;;;;;;16.42;5.00;;;11.40;99.90;;;;;;5028476;28;20128;-76
2024/02/12 11:16:29;;;;;;;12.88;4.07;;;11.50;99.90;;;;;;5032907;28;20028;-78
2024/02/12 11:19:00;;;;;;;10.50;4.57;;;11.50;99.90;;;;;;5037180;28;20037;-79
2024/02/12 11:21:30;;;;;;;13.75;4.50;;;11.50;99.90;;;;;;5039532;28;20044;-82
2024/02/12 11:24:08;;;;;;;11.15;4.30;;;11.40;99.90;;;;;;5034941;28;20032;-78
2024/02/12 11:26:41;;;;;;;15.63;5.03;;;11.60;99.90;;;;;;5031889;28;20518;-82
2024/02/12 11:29:07;;;;;;;15.38;4.47;;;11.50;99.90;;;;;;5035001;28;20028;-81
2024/02/12 11:31:40;;;;;;;13.93;4.32;;;11.50;99.90;;;;;;5037768;28;20386;-83
2024/02/12 11:34:17;;;;;;;11.65;3.95;;;11.60;99.90;;;;;;5040710;28;20025;-83
2024/02/12 11:36:45;;;;;;;16.40;5.00;;;11.60;99.90;;;;;;5038707;28;20036;-81
2024/02/12 11:39:12;;;;;;;11.10;3.97;;;11.60;99.90;;;;;;5036894;28;20536;-84
2024/02/12 11:41:38;;;;;;;16.15;4.80;;;11.60;99.90;;;;;;5042253;28;20052;-75
2024/02/12 11:44:05;;;;;;;13.43;4.70;;;11.70;99.90;;;;;;5035419;28;20491;-76
2024/02/12 11:46:36;;;;;;;11.35;3.90;;;11.80;99.90;;;;;;5037523;28;20070;-79
2024/02/12 11:49:06;;;;;;;11.60;3.85;;;11.80;99.90;;;;;;5035516;28;20056;-77
2024/02/12 11:51:39;;;;;;;13.57;4.70;;;11.60;99.90;;;;;;5037124;28;20024;-77
2024/02/12 11:54:06;;;;;;;13.48;4.88;;;11.40;99.90;;;;;;5040689;28;20522;-78
2024/02/12 11:56:32;;;;;;;13.43;5.00;;;11.50;99.90;;;;;;5038578;28;20108;-77
2024/02/12 11:58:58;;;;;;;11.73;3.92;;;11.50;99.90;;;;;;5033492;28;20105;-77
2024/02/12 12:01:30;;;;;;;14.82;4.53;;;11.50;99.90;;;;;;5042570;28;20083;-76
2024/02/12 12:03:57;;;;;;;11.45;4.25;;;11.50;99.90;;;;;;5035782;28;20489;-77
2024/02/12 12:06:30;;;;;;;9.65;3.88;;;11.50;99.90;;;;;;5037415;28;20044;-76
2024/02/12 12:08:56;;;;;;;;;;;11.60;99.90;;;;;;5033772;28;20017;-77
2024/02/12 12:11:23;;;;;;;12.90;4.22;;;11.70;99.90;;;;;;5037146;28;19905;-81
2024/02/12 12:13:59;;;;;;;10.00;3.80;;;11.80;99.90;;;;;;5036366;28;20022;-78
2024/02/12 12:16:30;;;;;;;11.85;3.88;;;11.90;99.90;;;;;;5039081;28;20029;-77
2024/02/12 12:19:01;;;;;;;12.45;3.70;;;12.00;99.90;;;;;;5037903;28;20555;-74
2024/02/12 12:21:29;;;;;;;8.18;3.53;;;12.10;99.90;;;;;;5038120;28;20017;-77
2024/02/12 12:23:54;;;;;;;8.75;4.07;;;12.20;99.90;;;;;;5038300;28;20025;-78
2024/02/12 12:26:20;;;;;;;8.93;3.65;;;12.00;99.90;;;;;;5035789;28;20502;-79
2024/02/12 12:28:46;;;;;;;10.35;3.75;;;12.00;99.90;;;;;;5033895;28;20029;-79
2024/02/12 12:31:11;;;;;;;12.43;3.00;;;12.20;99.90;;;;;;5039369;28;20382;-74
2024/02/12 12:33:37;;;;;;;12.00;2.92;;;12.20;99.90;;;;;;5031682;28;20390;-76
2024/02/12 12:36:03;;;;;;;7.10;2.58;;;12.20;99.90;;;;;;5033915;28;20025;-75
2024/02/12 12:38:29;;;;;;;5.15;2.45;;;12.00;99.90;;;;;;5033243;28;20112;-75
2024/02/12 12:40:56;;;;;;;9.38;2.50;;;11.90;99.90;;;;;;5035660;28;20022;-75
2024/02/12 12:43:22;;;;;;;8.40;2.85;;;11.90;99.90;;;;;;5035077;28;20108;-76
2024/02/12 12:45:52;;;;;;;9.05;2.85;;;11.90;99.90;;;;;;5037761;28;20091;-73
2024/02/12 12:48:18;;;;;;;12.75;3.30;;;11.90;99.90;;;;;;5038713;28;20454;-75